Forestville, Canada
Current Conditions -  °F | °C
As of 4:00 PM on Saturday 20 Dec 2014 (Local Time) from CYYY Reporting Station
Light Snow Light Snow  
Wind Chill: -6°   Ceiling: 800
Heat Index: -6°   Visibility: 4mi
Dew Point: -8°   Wind: 2mph
Humidity: 86%   Direction: 140°SE
Pressure: 30.38"   Gusts: NA
Location:  48.73°N, 69.07°W
Report Text: CYYY 202100Z 14002KT 4SM -SN BKN008 OVC015 M06/M08 A3038 RMK SF6SC2 SLP291
Loading
Personal Weather Stations






























Interactive Weather Map New forecast layout! Learn more

10-Day Weather Forecast

Advertisements
Track Severe Weather on mobile